sensor_id;sensor_type;location;lat;lon;timestamp;temperature;humidity
12827;DHT22;66927;48.812;9.118;2023-04-24T00:00:19;12.80;99.90
12827;DHT22;66927;48.812;9.118;2023-04-24T00:02:45;12.90;99.90
12827;DHT22;66927;48.812;9.118;2023-04-24T00:05:14;12.80;99.90
12827;DHT22;66927;48.812;9.118;2023-04-24T00:07:44;12.80;99.90
12827;DHT22;66927;48.812;9.118;2023-04-24T00:10:11;12.90;99.90
12827;DHT22;66927;48.812;9.118;2023-04-24T00:12:37;12.80;99.90
12827;DHT22;66927;48.812;9.118;2023-04-24T00:15:04;12.80;99.90
12827;DHT22;66927;48.812;9.118;2023-04-24T00:17:30;12.70;99.90
12827;DHT22;66927;48.812;9.118;2023-04-24T00:19:56;12.70;99.90
12827;DHT22;66927;48.812;9.118;2023-04-24T00:22:27;12.70;99.90
12827;DHT22;66927;48.812;9.118;2023-04-24T00:24:54;12.70;99.90
12827;DHT22;66927;48.812;9.118;2023-04-24T00:27:19;12.70;99.90
12827;DHT22;66927;48.812;9.118;2023-04-24T00:29:45;12.80;99.90
12827;DHT22;66927;48.812;9.118;2023-04-24T00:32:11;12.80;99.90
12827;DHT22;66927;48.812;9.118;2023-04-24T00:34:37;12.90;99.90
12827;DHT22;66927;48.812;9.118;2023-04-24T00:37:03;12.90;99.90
12827;DHT22;66927;48.812;9.118;2023-04-24T00:39:29;12.90;99.90
12827;DHT22;66927;48.812;9.118;2023-04-24T00:41:56;12.90;99.90
12827;DHT22;66927;48.812;9.118;2023-04-24T00:44:22;12.80;99.90
12827;DHT22;66927;48.812;9.118;2023-04-24T00:46:49;12.70;99.90
12827;DHT22;66927;48.812;9.118;2023-04-24T00:49:20;12.80;99.90
12827;DHT22;66927;48.812;9.118;2023-04-24T00:51:46;12.80;99.90
12827;DHT22;66927;48.812;9.118;2023-04-24T00:54:13;12.90;99.90
12827;DHT22;66927;48.812;9.118;2023-04-24T00:56:40;12.90;99.90
12827;DHT22;66927;48.812;9.118;2023-04-24T00:59:06;12.80;99.90
12827;DHT22;66927;48.812;9.118;2023-04-24T01:01:32;12.90;99.90
12827;DHT22;66927;48.812;9.118;2023-04-24T01:03:58;12.90;99.90
12827;DHT22;66927;48.812;9.118;2023-04-24T01:06:28;12.80;99.90
12827;DHT22;66927;48.812;9.118;2023-04-24T01:08:54;12.80;99.90
12827;DHT22;66927;48.812;9.118;2023-04-24T01:11:21;12.80;99.90
12827;DHT22;66927;48.812;9.118;2023-04-24T01:13:47;12.80;99.90
12827;DHT22;66927;48.812;9.118;2023-04-24T01:16:14;12.80;99.90
12827;DHT22;66927;48.812;9.118;2023-04-24T01:18:40;12.80;99.90
12827;DHT22;66927;48.812;9.118;2023-04-24T01:21:08;12.90;99.90
12827;DHT22;66927;48.812;9.118;2023-04-24T01:23:34;12.90;99.90
12827;DHT22;66927;48.812;9.118;2023-04-24T01:26:00;12.90;99.90
12827;DHT22;66927;48.812;9.118;2023-04-24T01:28:27;13.00;99.90
12827;DHT22;66927;48.812;9.118;2023-04-24T01:30:53;13.00;99.90
12827;DHT22;66927;48.812;9.118;2023-04-24T01:33:20;13.00;99.90
12827;DHT22;66927;48.812;9.118;2023-04-24T01:35:46;12.90;99.90
12827;DHT22;66927;48.812;9.118;2023-04-24T01:38:12;12.90;99.90
12827;DHT22;66927;48.812;9.118;2023-04-24T01:40:38;12.90;99.90
12827;DHT22;66927;48.812;9.118;2023-04-24T01:43:04;12.90;99.90
12827;DHT22;66927;48.812;9.118;2023-04-24T01:45:29;12.90;99.90
12827;DHT22;66927;48.812;9.118;2023-04-24T01:47:56;12.80;99.90
12827;DHT22;66927;48.812;9.118;2023-04-24T01:50:22;12.90;99.90
12827;DHT22;66927;48.812;9.118;2023-04-24T01:52:47;12.90;99.90
12827;DHT22;66927;48.812;9.118;2023-04-24T01:55:13;12.90;99.90
12827;DHT22;66927;48.812;9.118;2023-04-24T01:57:39;12.90;99.90
12827;DHT22;66927;48.812;9.118;2023-04-24T02:00:06;12.80;99.90
12827;DHT22;66927;48.812;9.118;2023-04-24T02:02:37;12.80;99.90
12827;DHT22;66927;48.812;9.118;2023-04-24T02:05:06;12.80;99.90
12827;DHT22;66927;48.812;9.118;2023-04-24T02:07:32;12.90;99.90
12827;DHT22;66927;48.812;9.118;2023-04-24T02:09:58;12.90;99.90
12827;DHT22;66927;48.812;9.118;2023-04-24T02:12:24;12.80;99.90
12827;DHT22;66927;48.812;9.118;2023-04-24T02:14:49;12.90;99.90
12827;DHT22;66927;48.812;9.118;2023-04-24T02:17:15;12.80;99.90
12827;DHT22;66927;48.812;9.118;2023-04-24T02:19:41;12.80;99.90
12827;DHT22;66927;48.812;9.118;2023-04-24T02:22:08;12.90;99.90
12827;DHT22;66927;48.812;9.118;2023-04-24T02:24:36;12.80;99.90
12827;DHT22;66927;48.812;9.118;2023-04-24T02:27:01;12.70;99.90
12827;DHT22;66927;48.812;9.118;2023-04-24T02:29:28;12.70;99.90
12827;DHT22;66927;48.812;9.118;2023-04-24T02:31:54;12.70;99.90
12827;DHT22;66927;48.812;9.118;2023-04-24T02:34:19;12.60;99.90
12827;DHT22;66927;48.812;9.118;2023-04-24T02:36:45;12.60;99.90
12827;DHT22;66927;48.812;9.118;2023-04-24T02:39:10;12.60;99.90
12827;DHT22;66927;48.812;9.118;2023-04-24T02:41:36;12.50;99.90
12827;DHT22;66927;48.812;9.118;2023-04-24T02:44:02;12.50;99.90
12827;DHT22;66927;48.812;9.118;2023-04-24T02:46:27;12.40;99.90
12827;DHT22;66927;48.812;9.118;2023-04-24T02:48:53;12.30;99.90
12827;DHT22;66927;48.812;9.118;2023-04-24T02:51:19;12.30;99.90
12827;DHT22;66927;48.812;9.118;2023-04-24T02:53:44;12.20;99.90
12827;DHT22;66927;48.812;9.118;2023-04-24T02:56:10;12.20;99.90
12827;DHT22;66927;48.812;9.118;2023-04-24T02:58:37;12.30;99.90
12827;DHT22;66927;48.812;9.118;2023-04-24T03:01:04;12.30;99.90
12827;DHT22;66927;48.812;9.118;2023-04-24T03:03:30;12.40;99.90
12827;DHT22;66927;48.812;9.118;2023-04-24T03:05:56;12.40;99.90
12827;DHT22;66927;48.812;9.118;2023-04-24T03:08:23;12.50;99.90
12827;DHT22;66927;48.812;9.118;2023-04-24T03:10:48;12.50;99.90
12827;DHT22;66927;48.812;9.118;2023-04-24T03:13:16;12.60;99.90
12827;DHT22;66927;48.812;9.118;2023-04-24T03:15:42;12.60;99.90
12827;DHT22;66927;48.812;9.118;2023-04-24T03:18:08;12.70;99.90
12827;DHT22;66927;48.812;9.118;2023-04-24T03:20:33;12.70;99.90
12827;DHT22;66927;48.812;9.118;2023-04-24T03:22:59;12.70;99.90
12827;DHT22;66927;48.812;9.118;2023-04-24T03:25:25;12.70;99.90
12827;DHT22;66927;48.812;9.118;2023-04-24T03:27:51;12.60;99.90
12827;DHT22;66927;48.812;9.118;2023-04-24T03:30:17;12.50;99.90
12827;DHT22;66927;48.812;9.118;2023-04-24T03:32:43;12.40;99.90
12827;DHT22;66927;48.812;9.118;2023-04-24T03:35:09;12.40;99.90
12827;DHT22;66927;48.812;9.118;2023-04-24T03:37:34;12.50;99.90
12827;DHT22;66927;48.812;9.118;2023-04-24T03:40:01;12.50;99.90
12827;DHT22;66927;48.812;9.118;2023-04-24T03:42:26;12.50;99.90
12827;DHT22;66927;48.812;9.118;2023-04-24T03:44:52;12.50;99.90
12827;DHT22;66927;48.812;9.118;2023-04-24T03:47:18;12.50;99.90
12827;DHT22;66927;48.812;9.118;2023-04-24T03:49:44;12.40;99.90
12827;DHT22;66927;48.812;9.118;2023-04-24T03:52:09;12.30;99.90
12827;DHT22;66927;48.812;9.118;2023-04-24T03:54:36;12.40;99.90
12827;DHT22;66927;48.812;9.118;2023-04-24T03:57:02;12.40;99.90
12827;DHT22;66927;48.812;9.118;2023-04-24T03:59:28;12.30;99.90
12827;DHT22;66927;48.812;9.118;2023-04-24T04:01:55;12.20;99.90
12827;DHT22;66927;48.812;9.118;2023-04-24T04:04:21;12.20;99.90
12827;DHT22;66927;48.812;9.118;2023-04-24T04:06:47;12.30;99.90
12827;DHT22;66927;48.812;9.118;2023-04-24T04:09:13;12.30;99.90
12827;DHT22;66927;48.812;9.118;2023-04-24T04:11:39;12.30;99.90
12827;DHT22;66927;48.812;9.118;2023-04-24T04:14:04;12.30;99.90
12827;DHT22;66927;48.812;9.118;2023-04-24T04:16:30;12.40;99.90
12827;DHT22;66927;48.812;9.118;2023-04-24T04:18:56;12.40;99.90
12827;DHT22;66927;48.812;9.118;2023-04-24T04:21:22;12.30;99.90
12827;DHT22;66927;48.812;9.118;2023-04-24T04:23:48;12.10;99.90
12827;DHT22;66927;48.812;9.118;2023-04-24T04:26:14;11.70;99.90
12827;DHT22;66927;48.812;9.118;2023-04-24T04:28:39;11.70;99.90
12827;DHT22;66927;48.812;9.118;2023-04-24T04:31:06;11.70;99.90
12827;DHT22;66927;48.812;9.118;2023-04-24T04:33:33;11.50;99.90
12827;DHT22;66927;48.812;9.118;2023-04-24T04:35:59;11.60;99.90
12827;DHT22;66927;48.812;9.118;2023-04-24T04:38:25;11.40;99.90
12827;DHT22;66927;48.812;9.118;2023-04-24T04:40:55;11.40;99.90
12827;DHT22;66927;48.812;9.118;2023-04-24T04:43:23;11.40;99.90
12827;DHT22;66927;48.812;9.118;2023-04-24T04:45:51;11.40;99.90
12827;DHT22;66927;48.812;9.118;2023-04-24T04:48:18;11.40;99.90
12827;DHT22;66927;48.812;9.118;2023-04-24T04:50:44;11.60;99.90
12827;DHT22;66927;48.812;9.118;2023-04-24T04:53:10;11.50;99.90
12827;DHT22;66927;48.812;9.118;2023-04-24T04:55:36;11.40;99.90
12827;DHT22;66927;48.812;9.118;2023-04-24T04:58:02;11.50;99.90
12827;DHT22;66927;48.812;9.118;2023-04-24T05:00:28;11.50;99.90
12827;DHT22;66927;48.812;9.118;2023-04-24T05:02:54;11.40;99.90
12827;DHT22;66927;48.812;9.118;2023-04-24T05:05:20;11.40;99.90
12827;DHT22;66927;48.812;9.118;2023-04-24T05:07:46;11.40;99.90
12827;DHT22;66927;48.812;9.118;2023-04-24T05:10:12;11.30;99.90
12827;DHT22;66927;48.812;9.118;2023-04-24T05:12:38;11.10;99.90
12827;DHT22;66927;48.812;9.118;2023-04-24T05:15:04;11.20;99.90
12827;DHT22;66927;48.812;9.118;2023-04-24T05:17:30;11.30;99.90
12827;DHT22;66927;48.812;9.118;2023-04-24T05:19:56;11.20;99.90
12827;DHT22;66927;48.812;9.118;2023-04-24T05:22:23;11.20;99.90
12827;DHT22;66927;48.812;9.118;2023-04-24T05:24:49;11.20;99.90
12827;DHT22;66927;48.812;9.118;2023-04-24T05:27:15;11.30;99.90
12827;DHT22;66927;48.812;9.118;2023-04-24T05:29:40;11.40;99.90
12827;DHT22;66927;48.812;9.118;2023-04-24T05:32:06;11.50;99.90
12827;DHT22;66927;48.812;9.118;2023-04-24T05:34:32;11.50;99.90
12827;DHT22;66927;48.812;9.118;2023-04-24T05:36:58;11.40;99.90
12827;DHT22;66927;48.812;9.118;2023-04-24T05:39:24;11.30;99.90
12827;DHT22;66927;48.812;9.118;2023-04-24T05:41:50;11.40;99.90
12827;DHT22;66927;48.812;9.118;2023-04-24T05:44:16;11.40;99.90
12827;DHT22;66927;48.812;9.118;2023-04-24T05:46:42;11.50;99.90
12827;DHT22;66927;48.812;9.118;2023-04-24T05:49:07;11.30;99.90
12827;DHT22;66927;48.812;9.118;2023-04-24T05:51:33;11.30;99.90
12827;DHT22;66927;48.812;9.118;2023-04-24T05:53:58;11.40;99.90
12827;DHT22;66927;48.812;9.118;2023-04-24T05:56:24;11.40;99.90
12827;DHT22;66927;48.812;9.118;2023-04-24T05:58:50;11.50;99.90
12827;DHT22;66927;48.812;9.118;2023-04-24T06:01:16;11.60;99.90
12827;DHT22;66927;48.812;9.118;2023-04-24T06:03:42;11.60;99.90
12827;DHT22;66927;48.812;9.118;2023-04-24T06:06:08;11.30;99.90
12827;DHT22;66927;48.812;9.118;2023-04-24T06:08:34;11.30;99.90
12827;DHT22;66927;48.812;9.118;2023-04-24T06:11:00;11.30;99.90
12827;DHT22;66927;48.812;9.118;2023-04-24T06:13:26;11.20;99.90
12827;DHT22;66927;48.812;9.118;2023-04-24T06:15:52;11.20;99.90
12827;DHT22;66927;48.812;9.118;2023-04-24T06:18:19;11.20;99.90
12827;DHT22;66927;48.812;9.118;2023-04-24T06:20:46;11.30;99.90
12827;DHT22;66927;48.812;9.118;2023-04-24T06:23:12;11.30;99.90
12827;DHT22;66927;48.812;9.118;2023-04-24T06:25:38;11.30;99.90
12827;DHT22;66927;48.812;9.118;2023-04-24T06:28:03;11.40;99.90
12827;DHT22;66927;48.812;9.118;2023-04-24T06:30:29;11.50;99.90
12827;DHT22;66927;48.812;9.118;2023-04-24T06:32:55;11.60;99.90
12827;DHT22;66927;48.812;9.118;2023-04-24T06:35:20;11.70;99.90
12827;DHT22;66927;48.812;9.118;2023-04-24T06:37:46;11.70;99.90
12827;DHT22;66927;48.812;9.118;2023-04-24T06:40:12;11.60;99.90
12827;DHT22;66927;48.812;9.118;2023-04-24T06:42:39;11.80;99.90
12827;DHT22;66927;48.812;9.118;2023-04-24T06:45:05;11.80;99.90
12827;DHT22;66927;48.812;9.118;2023-04-24T06:47:31;11.90;99.90
12827;DHT22;66927;48.812;9.118;2023-04-24T06:49:57;11.90;99.90
12827;DHT22;66927;48.812;9.118;2023-04-24T06:52:23;11.90;99.90
12827;DHT22;66927;48.812;9.118;2023-04-24T06:54:49;11.90;99.90
12827;DHT22;66927;48.812;9.118;2023-04-24T06:57:14;11.90;99.90
12827;DHT22;66927;48.812;9.118;2023-04-24T06:59:44;11.90;99.90
12827;DHT22;66927;48.812;9.118;2023-04-24T07:02:09;11.80;99.90
12827;DHT22;66927;48.812;9.118;2023-04-24T07:04:35;11.90;99.90
12827;DHT22;66927;48.812;9.118;2023-04-24T07:07:02;12.00;99.90
12827;DHT22;66927;48.812;9.118;2023-04-24T07:09:27;12.00;99.90
12827;DHT22;66927;48.812;9.118;2023-04-24T07:11:54;12.00;99.90
12827;DHT22;66927;48.812;9.118;2023-04-24T07:14:20;12.00;99.90
12827;DHT22;66927;48.812;9.118;2023-04-24T07:16:46;12.00;99.90
12827;DHT22;66927;48.812;9.118;2023-04-24T07:19:15;12.00;99.90
12827;DHT22;66927;48.812;9.118;2023-04-24T07:21:41;12.10;99.90
12827;DHT22;66927;48.812;9.118;2023-04-24T07:24:06;12.00;99.90
12827;DHT22;66927;48.812;9.118;2023-04-24T07:26:36;12.00;99.90
12827;DHT22;66927;48.812;9.118;2023-04-24T07:29:02;11.90;99.90
12827;DHT22;66927;48.812;9.118;2023-04-24T07:31:28;12.00;99.90
12827;DHT22;66927;48.812;9.118;2023-04-24T07:33:54;11.90;99.90
12827;DHT22;66927;48.812;9.118;2023-04-24T07:36:23;11.90;99.90
12827;DHT22;66927;48.812;9.118;2023-04-24T07:38:49;12.00;99.90
12827;DHT22;66927;48.812;9.118;2023-04-24T07:41:15;12.00;99.90
12827;DHT22;66927;48.812;9.118;2023-04-24T07:43:41;12.00;99.90
12827;DHT22;66927;48.812;9.118;2023-04-24T07:46:08;12.00;99.90
12827;DHT22;66927;48.812;9.118;2023-04-24T07:48:35;12.00;99.90
12827;DHT22;66927;48.812;9.118;2023-04-24T07:51:01;12.20;99.90
12827;DHT22;66927;48.812;9.118;2023-04-24T07:53:27;12.30;99.90
12827;DHT22;66927;48.812;9.118;2023-04-24T07:55:55;12.40;99.90
12827;DHT22;66927;48.812;9.118;2023-04-24T07:58:21;12.40;99.90
12827;DHT22;66927;48.812;9.118;2023-04-24T08:00:46;12.30;99.90
12827;DHT22;66927;48.812;9.118;2023-04-24T08:03:12;12.10;99.90
12827;DHT22;66927;48.812;9.118;2023-04-24T08:05:38;12.00;99.90
12827;DHT22;66927;48.812;9.118;2023-04-24T08:08:04;12.10;99.90
12827;DHT22;66927;48.812;9.118;2023-04-24T08:10:31;12.10;99.90
12827;DHT22;66927;48.812;9.118;2023-04-24T08:12:57;12.10;99.90
12827;DHT22;66927;48.812;9.118;2023-04-24T08:15:22;12.10;99.90
12827;DHT22;66927;48.812;9.118;2023-04-24T08:17:48;12.10;99.90
12827;DHT22;66927;48.812;9.118;2023-04-24T08:20:15;12.10;99.90
12827;DHT22;66927;48.812;9.118;2023-04-24T08:22:41;12.00;99.90
12827;DHT22;66927;48.812;9.118;2023-04-24T08:25:08;12.00;99.90
12827;DHT22;66927;48.812;9.118;2023-04-24T08:27:34;12.00;99.90
12827;DHT22;66927;48.812;9.118;2023-04-24T08:29:59;12.10;99.90
12827;DHT22;66927;48.812;9.118;2023-04-24T08:32:25;12.20;99.90
12827;DHT22;66927;48.812;9.118;2023-04-24T08:34:54;12.20;99.90
12827;DHT22;66927;48.812;9.118;2023-04-24T08:37:22;12.30;99.90
12827;DHT22;66927;48.812;9.118;2023-04-24T08:39:47;12.50;99.90
12827;DHT22;66927;48.812;9.118;2023-04-24T08:42:13;12.60;99.90
12827;DHT22;66927;48.812;9.118;2023-04-24T08:44:40;12.70;99.90
12827;DHT22;66927;48.812;9.118;2023-04-24T08:47:07;12.50;99.90
12827;DHT22;66927;48.812;9.118;2023-04-24T08:49:36;12.30;99.90
12827;DHT22;66927;48.812;9.118;2023-04-24T08:52:03;12.30;99.90
12827;DHT22;66927;48.812;9.118;2023-04-24T08:54:29;12.30;99.90
12827;DHT22;66927;48.812;9.118;2023-04-24T08:56:59;12.30;99.90
12827;DHT22;66927;48.812;9.118;2023-04-24T08:59:28;12.30;99.90
12827;DHT22;66927;48.812;9.118;2023-04-24T09:01:56;12.40;99.90
12827;DHT22;66927;48.812;9.118;2023-04-24T09:04:24;12.50;99.90
12827;DHT22;66927;48.812;9.118;2023-04-24T09:06:59;12.50;99.90
12827;DHT22;66927;48.812;9.118;2023-04-24T09:09:26;12.60;99.90
12827;DHT22;66927;48.812;9.118;2023-04-24T09:11:55;12.40;99.90
12827;DHT22;66927;48.812;9.118;2023-04-24T09:14:23;12.10;99.90
12827;DHT22;66927;48.812;9.118;2023-04-24T09:16:50;11.90;99.90
12827;DHT22;66927;48.812;9.118;2023-04-24T09:19:16;11.80;99.90
12827;DHT22;66927;48.812;9.118;2023-04-24T09:21:46;11.70;99.90
12827;DHT22;66927;48.812;9.118;2023-04-24T09:24:18;11.50;99.90
12827;DHT22;66927;48.812;9.118;2023-04-24T09:26:46;11.30;99.90
12827;DHT22;66927;48.812;9.118;2023-04-24T09:29:18;11.30;99.90
12827;DHT22;66927;48.812;9.118;2023-04-24T09:31:45;11.20;99.90
12827;DHT22;66927;48.812;9.118;2023-04-24T09:34:11;11.40;99.90
12827;DHT22;66927;48.812;9.118;2023-04-24T09:36:39;11.40;99.90
12827;DHT22;66927;48.812;9.118;2023-04-24T09:39:10;11.40;99.90
12827;DHT22;66927;48.812;9.118;2023-04-24T09:44:21;11.70;99.90
12827;DHT22;66927;48.812;9.118;2023-04-24T09:47:08;11.80;99.90
12827;DHT22;66927;48.812;9.118;2023-04-24T09:49:35;11.90;99.90
12827;DHT22;66927;48.812;9.118;2023-04-24T09:52:10;11.90;99.90
12827;DHT22;66927;48.812;9.118;2023-04-24T09:54:37;11.80;99.90
12827;DHT22;66927;48.812;9.118;2023-04-24T09:57:04;11.70;99.90
12827;DHT22;66927;48.812;9.118;2023-04-24T09:59:29;11.70;99.90
12827;DHT22;66927;48.812;9.118;2023-04-24T10:01:55;11.70;99.90
12827;DHT22;66927;48.812;9.118;2023-04-24T10:04:23;11.80;99.90
12827;DHT22;66927;48.812;9.118;2023-04-24T10:06:50;11.90;99.90
12827;DHT22;66927;48.812;9.118;2023-04-24T10:09:24;11.90;99.90
12827;DHT22;66927;48.812;9.118;2023-04-24T10:11:51;11.90;99.90
12827;DHT22;66927;48.812;9.118;2023-04-24T10:14:21;12.00;99.90
12827;DHT22;66927;48.812;9.118;2023-04-24T10:16:48;12.30;99.90
12827;DHT22;66927;48.812;9.118;2023-04-24T10:19:16;12.40;99.90
12827;DHT22;66927;48.812;9.118;2023-04-24T10:21:44;12.60;98.40
12827;DHT22;66927;48.812;9.118;2023-04-24T10:24:18;12.70;99.10
12827;DHT22;66927;48.812;9.118;2023-04-24T10:26:46;12.70;99.30
12827;DHT22;66927;48.812;9.118;2023-04-24T10:29:17;12.80;99.10
12827;DHT22;66927;48.812;9.118;2023-04-24T10:31:43;12.90;98.20
12827;DHT22;66927;48.812;9.118;2023-04-24T10:34:15;12.90;98.00
12827;DHT22;66927;48.812;9.118;2023-04-24T10:36:43;12.80;98.10
12827;DHT22;66927;48.812;9.118;2023-04-24T10:39:12;12.70;98.60
12827;DHT22;66927;48.812;9.118;2023-04-24T10:41:41;12.60;99.40
12827;DHT22;66927;48.812;9.118;2023-04-24T10:44:12;12.60;99.40
12827;DHT22;66927;48.812;9.118;2023-04-24T10:46:40;12.60;99.60
12827;DHT22;66927;48.812;9.118;2023-04-24T10:49:07;12.70;99.50
12827;DHT22;66927;48.812;9.118;2023-04-24T10:51:48;12.50;98.50
12827;DHT22;66927;48.812;9.118;2023-04-24T10:56:53;12.40;98.90
12827;DHT22;66927;48.812;9.118;2023-04-24T10:59:34;12.40;99.20
12827;DHT22;66927;48.812;9.118;2023-04-24T11:02:00;12.30;99.10
12827;DHT22;66927;48.812;9.118;2023-04-24T11:04:30;12.40;99.20
12827;DHT22;66927;48.812;9.118;2023-04-24T11:06:58;12.30;99.60
12827;DHT22;66927;48.812;9.118;2023-04-24T11:09:27;12.30;99.30
12827;DHT22;66927;48.812;9.118;2023-04-24T11:12:03;12.20;99.60
12827;DHT22;66927;48.812;9.118;2023-04-24T11:17:36;12.10;99.70
12827;DHT22;66927;48.812;9.118;2023-04-24T11:20:11;12.10;99.90
12827;DHT22;66927;48.812;9.118;2023-04-24T11:22:39;12.20;99.90
12827;DHT22;66927;48.812;9.118;2023-04-24T11:25:06;12.20;99.40
12827;DHT22;66927;48.812;9.118;2023-04-24T11:27:42;12.30;99.00
12827;DHT22;66927;48.812;9.118;2023-04-24T11:30:09;12.40;99.20
12827;DHT22;66927;48.812;9.118;2023-04-24T11:35:20;12.30;99.10
12827;DHT22;66927;48.812;9.118;2023-04-24T11:37:53;12.40;99.00
12827;DHT22;66927;48.812;9.118;2023-04-24T11:40:21;12.40;99.30
12827;DHT22;66927;48.812;9.118;2023-04-24T11:42:52;12.40;99.00
12827;DHT22;66927;48.812;9.118;2023-04-24T11:45:23;12.20;99.40
12827;DHT22;66927;48.812;9.118;2023-04-24T11:47:49;12.30;99.90
12827;DHT22;66927;48.812;9.118;2023-04-24T11:50:18;12.30;99.90
12827;DHT22;66927;48.812;9.118;2023-04-24T11:52:45;12.40;99.90
12827;DHT22;66927;48.812;9.118;2023-04-24T11:57:43;12.30;99.90
12827;DHT22;66927;48.812;9.118;2023-04-24T12:00:15;12.40;99.90
12827;DHT22;66927;48.812;9.118;2023-04-24T12:02:42;12.40;99.90
12827;DHT22;66927;48.812;9.118;2023-04-24T12:05:08;12.40;99.90
12827;DHT22;66927;48.812;9.118;2023-04-24T12:07:41;12.50;99.90
12827;DHT22;66927;48.812;9.118;2023-04-24T12:10:09;12.50;99.70
12827;DHT22;66927;48.812;9.118;2023-04-24T12:12:35;12.50;99.60
12827;DHT22;66927;48.812;9.118;2023-04-24T12:15:01;12.40;99.50
12827;DHT22;66927;48.812;9.118;2023-04-24T12:17:32;12.30;99.80
12827;DHT22;66927;48.812;9.118;2023-04-24T12:20:05;12.30;99.90
12827;DHT22;66927;48.812;9.118;2023-04-24T12:22:54;12.20;99.80
12827;DHT22;66927;48.812;9.118;2023-04-24T12:25:26;12.20;99.90
12827;DHT22;66927;48.812;9.118;2023-04-24T12:28:14;12.20;99.90
12827;DHT22;66927;48.812;9.118;2023-04-24T12:30:44;12.20;99.80
12827;DHT22;66927;48.812;9.118;2023-04-24T12:33:20;12.30;99.70
12827;DHT22;66927;48.812;9.118;2023-04-24T12:35:47;12.20;99.30
12827;DHT22;66927;48.812;9.118;2023-04-24T12:38:14;12.20;99.30
12827;DHT22;66927;48.812;9.118;2023-04-24T12:40:43;12.20;99.20
12827;DHT22;66927;48.812;9.118;2023-04-24T12:43:19;12.20;99.60
12827;DHT22;66927;48.812;9.118;2023-04-24T12:45:45;12.10;99.50
12827;DHT22;66927;48.812;9.118;2023-04-24T12:48:11;12.10;99.30
12827;DHT22;66927;48.812;9.118;2023-04-24T12:50:38;12.10;99.50
12827;DHT22;66927;48.812;9.118;2023-04-24T12:53:03;12.10;99.50
12827;DHT22;66927;48.812;9.118;2023-04-24T12:55:29;12.10;99.90
12827;DHT22;66927;48.812;9.118;2023-04-24T12:57:55;12.00;99.90
12827;DHT22;66927;48.812;9.118;2023-04-24T13:00:21;11.80;99.90
12827;DHT22;66927;48.812;9.118;2023-04-24T13:02:47;11.40;99.90
12827;DHT22;66927;48.812;9.118;2023-04-24T13:05:13;11.30;99.90
12827;DHT22;66927;48.812;9.118;2023-04-24T13:07:39;11.50;99.90
12827;DHT22;66927;48.812;9.118;2023-04-24T13:10:06;11.70;99.90
12827;DHT22;66927;48.812;9.118;2023-04-24T13:12:33;11.90;99.90
12827;DHT22;66927;48.812;9.118;2023-04-24T13:14:59;12.20;99.90
12827;DHT22;66927;48.812;9.118;2023-04-24T13:17:25;12.20;99.90
12827;DHT22;66927;48.812;9.118;2023-04-24T13:19:51;12.10;99.90
12827;DHT22;66927;48.812;9.118;2023-04-24T13:22:25;12.30;99.90
12827;DHT22;66927;48.812;9.118;2023-04-24T13:24:51;12.40;99.90
12827;DHT22;66927;48.812;9.118;2023-04-24T13:27:18;12.40;99.90
12827;DHT22;66927;48.812;9.118;2023-04-24T13:29:43;12.50;99.90
12827;DHT22;66927;48.812;9.118;2023-04-24T13:32:09;12.60;99.90
12827;DHT22;66927;48.812;9.118;2023-04-24T13:34:35;12.60;99.90
12827;DHT22;66927;48.812;9.118;2023-04-24T13:37:02;12.50;99.90
12827;DHT22;66927;48.812;9.118;2023-04-24T13:39:29;12.50;99.90
12827;DHT22;66927;48.812;9.118;2023-04-24T13:41:55;12.50;99.90
12827;DHT22;66927;48.812;9.118;2023-04-24T13:44:21;12.50;99.90
12827;DHT22;66927;48.812;9.118;2023-04-24T13:46:50;12.50;99.90
12827;DHT22;66927;48.812;9.118;2023-04-24T13:49:17;12.30;99.90
12827;DHT22;66927;48.812;9.118;2023-04-24T13:51:43;12.30;99.90
12827;DHT22;66927;48.812;9.118;2023-04-24T13:54:09;12.50;99.90
12827;DHT22;66927;48.812;9.118;2023-04-24T13:56:34;12.50;99.90
12827;DHT22;66927;48.812;9.118;2023-04-24T13:59:00;12.90;99.90
12827;DHT22;66927;48.812;9.118;2023-04-24T14:01:26;13.00;99.90
12827;DHT22;66927;48.812;9.118;2023-04-24T14:03:52;13.20;99.90
12827;DHT22;66927;48.812;9.118;2023-04-24T14:06:19;13.30;99.90
12827;DHT22;66927;48.812;9.118;2023-04-24T14:08:45;13.40;99.90
12827;DHT22;66927;48.812;9.118;2023-04-24T14:11:11;13.60;99.90
12827;DHT22;66927;48.812;9.118;2023-04-24T14:13:37;13.70;99.90
12827;DHT22;66927;48.812;9.118;2023-04-24T14:16:04;13.70;99.90
12827;DHT22;66927;48.812;9.118;2023-04-24T14:18:31;13.70;99.90
12827;DHT22;66927;48.812;9.118;2023-04-24T14:20:57;13.90;99.90
12827;DHT22;66927;48.812;9.118;2023-04-24T14:23:22;13.80;99.90
12827;DHT22;66927;48.812;9.118;2023-04-24T14:25:48;13.60;99.90
12827;DHT22;66927;48.812;9.118;2023-04-24T14:28:19;13.70;99.90
12827;DHT22;66927;48.812;9.118;2023-04-24T14:30:46;13.80;99.90
12827;DHT22;66927;48.812;9.118;2023-04-24T14:33:12;13.50;99.90
12827;DHT22;66927;48.812;9.118;2023-04-24T14:35:39;13.50;99.90
12827;DHT22;66927;48.812;9.118;2023-04-24T14:38:07;13.10;99.90
12827;DHT22;66927;48.812;9.118;2023-04-24T14:40:33;12.90;99.90
12827;DHT22;66927;48.812;9.118;2023-04-24T14:42:58;12.80;99.90
12827;DHT22;66927;48.812;9.118;2023-04-24T14:45:25;12.90;99.90
12827;DHT22;66927;48.812;9.118;2023-04-24T14:47:51;12.90;99.90
12827;DHT22;66927;48.812;9.118;2023-04-24T14:50:16;12.80;99.90
12827;DHT22;66927;48.812;9.118;2023-04-24T14:52:42;12.80;99.90
12827;DHT22;66927;48.812;9.118;2023-04-24T14:55:08;12.80;99.90
12827;DHT22;66927;48.812;9.118;2023-04-24T14:57:34;12.90;99.90
12827;DHT22;66927;48.812;9.118;2023-04-24T15:00:01;13.00;99.90
12827;DHT22;66927;48.812;9.118;2023-04-24T15:02:27;13.00;99.90
12827;DHT22;66927;48.812;9.118;2023-04-24T15:04:53;13.00;99.90
12827;DHT22;66927;48.812;9.118;2023-04-24T15:07:18;12.90;99.90
12827;DHT22;66927;48.812;9.118;2023-04-24T15:09:44;12.90;99.90
12827;DHT22;66927;48.812;9.118;2023-04-24T15:12:12;12.90;99.90
12827;DHT22;66927;48.812;9.118;2023-04-24T15:14:38;12.80;99.90
12827;DHT22;66927;48.812;9.118;2023-04-24T15:17:03;12.70;99.90
12827;DHT22;66927;48.812;9.118;2023-04-24T15:19:29;12.50;99.90
12827;DHT22;66927;48.812;9.118;2023-04-24T15:21:54;12.50;99.90
12827;DHT22;66927;48.812;9.118;2023-04-24T15:24:20;12.50;99.90
12827;DHT22;66927;48.812;9.118;2023-04-24T15:26:46;12.50;99.90
12827;DHT22;66927;48.812;9.118;2023-04-24T15:29:11;12.30;99.90
12827;DHT22;66927;48.812;9.118;2023-04-24T15:31:37;12.10;99.90
12827;DHT22;66927;48.812;9.118;2023-04-24T15:34:05;12.00;99.90
12827;DHT22;66927;48.812;9.118;2023-04-24T15:36:31;11.90;99.90
12827;DHT22;66927;48.812;9.118;2023-04-24T15:38:57;11.80;99.90
12827;DHT22;66927;48.812;9.118;2023-04-24T15:41:23;11.70;99.90